Aviation Digital Data Service (ADDS)

Output produced by METARs form (2218 UTC 01 October 2016)
found at http://aviationweather.gov/adds/metars/
 
KPIT 012057Z 0121/0224 24003KT P6SM SCT030 
     FM012200 16004KT P6SM BKN050 
     FM021300 19004KT P6SM BKN015 
     FM021600 22007KT P6SM VCSH BKN025 
     FM021900 22008KT P6SM VCSH BKN035